Time;durP1;ratioP1;P1;durP2;ratioP2;P2;SDS_P1;SDS_P2;PMS_P1;PMS_P2;Temp;Humidity;BMP_temperature;BMP_pressure;BME280_temperature;BME280_humidity;BME280_pressure;Samples;Min_cycle;Max_cycle;Signal;HPM_P1;HPM_P2
2022/12/07 00:01:28;;;;;;;2.40;2.20;;;2.80;97.30;;;;;;5054717;28;20409;-88
2022/12/07 00:04:00;;;;;;;2.80;2.60;;;2.70;97.30;;;;;;5072988;28;20406;-88
2022/12/07 00:06:26;;;;;;;2.23;2.03;;;2.70;97.30;;;;;;5054987;28;20992;-88
2022/12/07 00:08:51;;;;;;;2.63;2.47;;;2.70;97.30;;;;;;5055362;28;20448;-88
2022/12/07 00:11:20;;;;;;;2.40;2.13;;;2.70;97.30;;;;;;5054305;28;20183;-88
2022/12/07 00:13:46;;;;;;;1.67;1.57;;;2.70;97.30;;;;;;5055143;28;20171;-87
2022/12/07 00:16:14;;;;;;;2.40;2.03;;;2.70;97.30;;;;;;5055666;28;20455;-88
2022/12/07 00:18:41;;;;;;;2.70;2.50;;;2.70;97.30;;;;;;5059902;28;20448;-88
2022/12/07 00:21:11;;;;;;;2.50;1.77;;;2.70;97.30;;;;;;5055764;28;20410;-88
2022/12/07 00:23:37;;;;;;;2.80;2.60;;;2.70;97.30;;;;;;5049815;28;20449;-88
2022/12/07 00:26:04;;;;;;;2.50;2.30;;;2.70;97.30;;;;;;5054411;28;20425;-88
2022/12/07 00:28:30;;;;;;;1.73;1.63;;;2.70;97.30;;;;;;5054038;28;20420;-89
2022/12/07 00:31:10;;;;;;;2.43;2.20;;;2.60;97.30;;;;;;5054846;28;20410;-87
2022/12/07 00:33:36;;;;;;;3.20;2.67;;;2.50;97.30;;;;;;5041861;28;20175;-87
2022/12/07 00:36:09;;;;;;;4.30;2.50;;;2.50;97.30;;;;;;5055272;28;21161;-88
2022/12/07 00:38:36;;;;;;;5.43;2.90;;;2.50;97.30;;;;;;5043032;28;20520;-88
2022/12/07 00:41:23;;;;;;;1.77;1.67;;;2.50;97.30;;;;;;5044952;28;20414;-87
2022/12/07 00:43:49;;;;;;;1.93;1.87;;;2.50;97.30;;;;;;5042646;28;20502;-88
2022/12/07 00:46:15;;;;;;;6.00;2.10;;;2.50;97.30;;;;;;5055109;28;20429;-88
2022/12/07 00:48:42;;;;;;;4.90;2.87;;;2.40;97.30;;;;;;5058930;28;20441;-87
2022/12/07 00:51:09;;;;;;;5.40;3.90;;;2.50;97.30;;;;;;5058128;28;20409;-88
2022/12/07 00:53:35;;;;;;;2.47;2.13;;;2.50;97.30;;;;;;5052032;28;20429;-88
2022/12/07 00:56:22;;;;;;;1.63;1.53;;;2.50;97.30;;;;;;5039879;28;20471;-87
2022/12/07 00:58:53;;;;;;;4.63;3.10;;;2.40;97.30;;;;;;5076127;28;20413;-88
2022/12/07 01:01:18;;;;;;;3.70;2.30;;;2.40;97.30;;;;;;5044364;28;20417;-88
2022/12/07 01:03:44;;;;;;;2.83;2.63;;;2.40;97.30;;;;;;5058386;28;20449;-87
2022/12/07 01:06:13;;;;;;;2.33;2.13;;;2.30;97.30;;;;;;5045403;28;20209;-88
2022/12/07 01:08:39;;;;;;;2.13;1.97;;;2.30;97.30;;;;;;5058342;28;20171;-88
2022/12/07 01:11:07;;;;;;;4.60;4.30;;;2.30;97.30;;;;;;5057667;28;20413;-88
2022/12/07 01:13:34;;;;;;;4.97;4.20;;;2.20;97.30;;;;;;5057932;28;20182;-88
2022/12/07 01:16:02;;;;;;;3.47;3.27;;;2.20;97.30;;;;;;5075814;28;20456;-88
2022/12/07 01:18:29;;;;;;;1.97;1.30;;;2.10;97.30;;;;;;5057679;28;20425;-88
2022/12/07 01:21:16;;;;;;;4.10;2.20;;;2.00;97.30;;;;;;5044853;28;20601;-87
2022/12/07 01:23:43;;;;;;;4.60;3.00;;;2.00;97.30;;;;;;5055431;28;20535;-88
2022/12/07 01:26:12;;;;;;;3.07;2.80;;;2.00;97.30;;;;;;5038393;28;20518;-89
2022/12/07 01:28:38;;;;;;;2.67;2.47;;;1.90;97.30;;;;;;5039009;28;20498;-88
2022/12/07 01:31:15;;;;;;;2.77;2.60;;;1.90;97.30;;;;;;5047240;28;21054;-86
2022/12/07 01:33:42;;;;;;;3.23;2.43;;;1.80;97.30;;;;;;5057375;28;20175;-88
2022/12/07 01:36:14;;;;;;;2.60;2.40;;;1.80;97.30;;;;;;5057050;28;20468;-88
2022/12/07 01:38:39;;;;;;;4.90;2.07;;;1.70;97.30;;;;;;5056722;28;20500;-90
2022/12/07 01:41:05;;;;;;;3.10;2.83;;;1.70;97.30;;;;;;5057414;28;20509;-88
2022/12/07 01:43:32;;;;;;;5.07;4.80;;;1.70;97.30;;;;;;5043835;28;20267;-89
2022/12/07 01:45:59;;;;;;;1.30;1.20;;;1.70;97.30;;;;;;5063893;28;20287;-87
2022/12/07 01:48:30;;;;;;;3.53;2.30;;;1.70;97.30;;;;;;5055191;28;20409;-88
2022/12/07 01:51:00;;;;;;;8.43;2.30;;;1.60;97.30;;;;;;5040802;28;20428;-87
2022/12/07 01:53:29;;;;;;;3.93;3.73;;;1.60;97.30;;;;;;5056751;28;20413;-86
2022/12/07 01:55:56;;;;;;;2.43;2.23;;;1.60;97.30;;;;;;5057271;28;20472;-88
2022/12/07 01:58:23;;;;;;;1.90;1.80;;;1.60;97.30;;;;;;5056137;28;20474;-85
2022/12/07 02:00:48;;;;;;;5.40;3.37;;;1.50;97.30;;;;;;5057217;28;20413;-88
2022/12/07 02:03:18;;;;;;;4.53;2.93;;;1.50;97.30;;;;;;5039286;28;20468;-88
2022/12/07 02:05:45;;;;;;;2.03;1.90;;;1.50;97.30;;;;;;5054197;28;20194;-89
2022/12/07 02:08:12;;;;;;;3.20;2.20;;;1.40;97.30;;;;;;5046927;28;20857;-88
2022/12/07 02:10:37;;;;;;;3.80;3.60;;;1.40;97.30;;;;;;5056486;28;20422;-88
2022/12/07 02:13:09;;;;;;;4.63;2.93;;;1.40;97.30;;;;;;5056588;28;20483;-87
2022/12/07 02:16:05;;;;;;;2.77;2.57;;;1.30;97.30;;;;;;5056534;28;20298;-88
2022/12/07 02:18:43;;;;;;;3.73;2.23;;;1.30;97.30;;;;;;5006556;28;20429;-87
2022/12/07 02:21:18;;;;;;;3.40;3.20;;;1.30;97.30;;;;;;5051121;28;20418;-88
2022/12/07 02:23:56;;;;;;;2.50;2.30;;;1.30;97.30;;;;;;5051264;28;20460;-88
2022/12/07 02:27:07;;;;;;;4.00;3.23;;;1.30;97.30;;;;;;5057076;28;20493;-88
2022/12/07 02:29:42;;;;;;;2.07;1.90;;;1.30;97.30;;;;;;5048823;28;20442;-87
2022/12/07 02:32:29;;;;;;;1.90;1.60;;;1.30;97.30;;;;;;5055985;28;20413;-87
2022/12/07 02:35:06;;;;;;;2.20;2.00;;;1.30;97.30;;;;;;5056126;28;20567;-88
2022/12/07 02:37:41;;;;;;;3.27;3.07;;;1.20;97.30;;;;;;5056255;28;20478;-88
2022/12/07 02:40:36;;;;;;;10.47;3.80;;;1.20;97.30;;;;;;5056565;28;20421;-88
2022/12/07 02:43:25;;;;;;;2.63;2.10;;;1.20;97.30;;;;;;5067818;28;20959;-88
2022/12/07 02:45:55;;;;;;;2.87;2.67;;;1.20;97.30;;;;;;5070618;28;20951;-88
2022/12/07 02:48:21;;;;;;;3.43;3.23;;;1.20;97.30;;;;;;5055901;28;20451;-88
2022/12/07 02:50:52;;;;;;;2.20;2.03;;;1.20;97.30;;;;;;5055378;28;20428;-88
2022/12/07 02:53:39;;;;;;;2.50;2.33;;;1.20;97.30;;;;;;5045139;28;20417;-88
2022/12/07 02:56:23;;;;;;;4.40;4.10;;;1.20;97.30;;;;;;5043641;28;20506;-88
2022/12/07 02:59:21;;;;;;;2.33;2.10;;;1.20;97.30;;;;;;5055372;28;20409;-88
2022/12/07 03:02:09;;;;;;;2.33;2.13;;;1.20;97.30;;;;;;5054803;28;20425;-88
2022/12/07 03:04:58;;;;;;;10.87;2.77;;;1.20;97.30;;;;;;5056070;28;20463;-88
2022/12/07 03:07:32;;;;;;;2.83;2.53;;;1.20;97.30;;;;;;5072948;28;20475;-88
2022/12/07 03:10:26;;;;;;;4.37;3.27;;;1.20;97.30;;;;;;5055055;28;20428;-88
2022/12/07 03:13:09;;;;;;;9.03;3.53;;;1.20;97.30;;;;;;5045733;28;20516;-88
2022/12/07 03:16:14;;;;;;;7.30;2.80;;;1.20;97.30;;;;;;5042385;28;20456;-87
2022/12/07 03:18:49;;;;;;;1.27;1.17;;;1.20;97.30;;;;;;5042409;28;20942;-89
2022/12/07 03:21:20;;;;;;;5.10;3.30;;;1.20;97.30;;;;;;5055201;28;20436;-87
2022/12/07 03:23:52;;;;;;;2.63;2.47;;;1.10;97.30;;;;;;5035445;28;20534;-88
2022/12/07 03:26:21;;;;;;;1.50;1.40;;;1.20;97.30;;;;;;5039789;28;20451;-87
2022/12/07 03:28:52;;;;;;;1.63;1.57;;;1.10;97.30;;;;;;5055777;28;20449;-88
2022/12/07 03:31:20;;;;;;;1.73;1.63;;;1.10;97.30;;;;;;5055494;28;20576;-88
2022/12/07 03:34:12;;;;;;;8.73;4.27;;;1.10;97.30;;;;;;5055832;28;20418;-87
2022/12/07 03:36:47;;;;;;;4.77;3.00;;;1.10;97.30;;;;;;5055497;28;20437;-88
2022/12/07 03:39:20;;;;;;;3.40;3.20;;;1.10;97.30;;;;;;5041825;28;20421;-88
2022/12/07 03:41:46;;;;;;;5.70;2.53;;;1.20;97.30;;;;;;5055577;28;20409;-88
2022/12/07 03:44:14;;;;;;;3.90;3.20;;;1.20;97.30;;;;;;5071062;28;20472;-87
2022/12/07 03:47:12;;;;;;;3.43;2.00;;;1.20;97.30;;;;;;5044397;28;20512;-88
2022/12/07 03:50:02;;;;;;;2.47;1.57;;;1.20;97.30;;;;;;5034705;28;20414;-86
2022/12/07 03:52:52;;;;;;;1.27;1.17;;;1.30;97.30;;;;;;5038705;28;21015;-87
2022/12/07 03:55:25;;;;;;;2.40;1.90;;;1.30;97.30;;;;;;5055265;28;20444;-87
2022/12/07 03:57:54;;;;;;;2.23;2.03;;;1.30;97.30;;;;;;5055451;28;20482;-87
2022/12/07 04:00:20;;;;;;;11.23;4.40;;;1.30;97.30;;;;;;5054447;28;20759;-87
2022/12/07 04:02:47;;;;;;;4.00;2.67;;;1.40;97.30;;;;;;5054957;28;20456;-88
2022/12/07 04:05:12;;;;;;;1.03;0.93;;;1.40;97.30;;;;;;5055090;28;20226;-88
2022/12/07 04:07:38;;;;;;;4.20;3.73;;;1.40;97.30;;;;;;5054392;28;20919;-89
2022/12/07 04:10:04;;;;;;;4.23;2.50;;;1.40;97.30;;;;;;5054795;28;20174;-87
2022/12/07 04:12:30;;;;;;;2.80;2.03;;;1.40;97.30;;;;;;5054414;28;20935;-88
2022/12/07 04:14:55;;;;;;;1.67;1.60;;;1.40;97.30;;;;;;5053676;28;20444;-88
2022/12/07 04:17:21;;;;;;;4.83;1.67;;;1.50;97.30;;;;;;5054779;28;20207;-88
2022/12/07 04:19:46;;;;;;;2.73;1.93;;;1.50;97.30;;;;;;5054382;28;20266;-87
2022/12/07 04:22:12;;;;;;;3.27;2.40;;;1.50;97.30;;;;;;5059149;28;20455;-88
2022/12/07 04:24:38;;;;;;;4.23;3.37;;;1.50;97.30;;;;;;5076923;28;20206;-88
2022/12/07 04:27:04;;;;;;;7.00;2.13;;;1.50;97.30;;;;;;5059053;28;20175;-87
2022/12/07 04:29:29;;;;;;;3.23;3.03;;;1.50;97.30;;;;;;5058400;28;20790;-88
2022/12/07 04:31:55;;;;;;;3.27;3.07;;;1.50;97.30;;;;;;5051307;28;20241;-88
2022/12/07 04:34:20;;;;;;;4.50;2.80;;;1.60;97.30;;;;;;5040362;28;20227;-87
2022/12/07 04:36:47;;;;;;;2.13;1.97;;;1.60;97.30;;;;;;5058840;28;20243;-89
2022/12/07 04:39:31;;;;;;;3.47;3.10;;;1.60;97.30;;;;;;5058898;28;20187;-88
2022/12/07 04:41:58;;;;;;;2.10;1.67;;;1.70;97.30;;;;;;5058669;28;20517;-87
2022/12/07 04:44:24;;;;;;;4.40;3.00;;;1.70;97.30;;;;;;5061642;28;20444;-88
2022/12/07 04:46:51;;;;;;;4.33;1.83;;;1.70;97.30;;;;;;5076488;28;20478;-88
2022/12/07 04:49:17;;;;;;;2.33;2.10;;;1.70;97.30;;;;;;5045263;28;20420;-88
2022/12/07 04:51:44;;;;;;;2.30;1.97;;;1.70;97.30;;;;;;5057941;28;20425;-88
2022/12/07 04:54:09;;;;;;;9.43;3.97;;;1.70;97.30;;;;;;5057844;28;20425;-88
2022/12/07 04:56:35;;;;;;;1.97;1.87;;;1.80;97.30;;;;;;5051070;28;20413;-87
2022/12/07 04:59:02;;;;;;;1.93;1.83;;;1.80;97.30;;;;;;5046807;28;20176;-88
2022/12/07 05:01:28;;;;;;;2.23;2.03;;;1.80;97.30;;;;;;5050384;28;20421;-87
2022/12/07 05:03:56;;;;;;;1.57;1.47;;;1.80;97.30;;;;;;5042159;28;20450;-88
2022/12/07 05:06:24;;;;;;;2.77;2.57;;;1.80;97.30;;;;;;5054649;28;20183;-88
2022/12/07 05:08:50;;;;;;;2.67;2.00;;;1.90;97.30;;;;;;5063502;28;20787;-86
2022/12/07 05:14:02;;;;;;;2.23;2.07;;;1.90;97.30;;;;;;5063348;28;20178;-88
2022/12/07 05:16:28;;;;;;;4.10;2.77;;;1.90;97.30;;;;;;5058001;28;20500;-87
2022/12/07 05:24:47;;;;;;;3.53;2.23;;;2.00;97.30;;;;;;5010377;28;20471;-89
2022/12/07 05:27:37;;;;;;;2.30;1.90;;;2.00;97.30;;;;;;4991909;28;20490;-90
2022/12/07 05:30:07;;;;;;;1.30;1.20;;;2.00;97.30;;;;;;4967291;28;21019;-88
2022/12/07 05:33:14;;;;;;;2.43;1.50;;;2.00;97.30;;;;;;4977778;28;20449;-88
2022/12/07 05:35:46;;;;;;;12.77;3.27;;;2.00;97.30;;;;;;4905484;29;20444;-89
2022/12/07 05:38:17;;;;;;;1.37;1.27;;;2.00;97.30;;;;;;4967862;28;20808;-88
2022/12/07 05:40:43;;;;;;;3.20;2.03;;;2.10;97.30;;;;;;4983390;28;20429;-88
2022/12/07 05:43:08;;;;;;;13.33;1.67;;;2.10;97.30;;;;;;4975357;28;20464;-87
2022/12/07 05:45:34;;;;;;;4.40;2.93;;;2.10;97.30;;;;;;4974094;28;20193;-90
2022/12/07 05:47:59;;;;;;;10.30;4.03;;;2.10;97.30;;;;;;4977418;28;20256;-88
2022/12/07 05:50:25;;;;;;;1.37;1.27;;;2.10;97.30;;;;;;4977117;28;20178;-89
2022/12/07 05:52:51;;;;;;;1.70;1.60;;;2.10;97.30;;;;;;4971823;28;20178;-89
2022/12/07 05:55:16;;;;;;;1.83;1.73;;;2.10;97.30;;;;;;4989580;28;20223;-89
2022/12/07 05:59:22;;;;;;;1.57;1.50;;;2.10;97.30;;;;;;4976633;28;20317;-89
2022/12/07 06:00:27;;;;;;;2.33;2.00;;;2.10;97.30;;;;;;4989968;28;20186;-88
2022/12/07 06:02:53;;;;;;;7.40;2.47;;;2.20;97.30;;;;;;4983050;28;20543;-88
2022/12/07 06:05:19;;;;;;;4.20;2.83;;;2.20;97.30;;;;;;4980790;28;20210;-88
2022/12/07 06:07:44;;;;;;;1.77;1.43;;;2.20;97.30;;;;;;4975279;28;20184;-88
2022/12/07 06:10:10;;;;;;;6.23;2.77;;;2.20;97.30;;;;;;4974067;28;20178;-86
2022/12/07 06:12:38;;;;;;;1.57;1.47;;;2.20;97.30;;;;;;4976054;28;20182;-87
2022/12/07 06:15:04;;;;;;;1.73;1.63;;;2.30;97.30;;;;;;4978168;28;20182;-89
2022/12/07 06:17:30;;;;;;;6.90;4.40;;;2.30;97.30;;;;;;4975997;28;20524;-86
2022/12/07 06:19:55;;;;;;;2.80;2.60;;;2.30;97.30;;;;;;4969453;28;20441;-88
2022/12/07 06:22:21;;;;;;;5.10;3.40;;;2.30;97.30;;;;;;4974891;28;20525;-91
2022/12/07 06:24:47;;;;;;;5.80;4.93;;;2.30;97.30;;;;;;4975258;28;20182;-89
2022/12/07 06:27:13;;;;;;;3.90;2.93;;;2.30;97.30;;;;;;4970600;28;20191;-88
2022/12/07 06:29:38;;;;;;;2.60;1.77;;;2.30;97.30;;;;;;4974420;28;20217;-89
2022/12/07 06:32:05;;;;;;;3.33;2.70;;;2.30;97.30;;;;;;4968191;28;20927;-89
2022/12/07 06:34:31;;;;;;;7.50;4.30;;;2.30;97.30;;;;;;4968347;28;20727;-89
2022/12/07 06:36:56;;;;;;;7.57;3.00;;;2.30;97.30;;;;;;4970299;28;20425;-90
2022/12/07 06:39:25;;;;;;;4.53;2.60;;;2.30;97.30;;;;;;4977689;28;20296;-89
2022/12/07 06:41:54;;;;;;;2.13;1.90;;;2.30;97.30;;;;;;4975917;28;20178;-88
2022/12/07 06:44:21;;;;;;;2.53;1.97;;;2.30;97.30;;;;;;4970404;28;20798;-87
2022/12/07 06:46:47;;;;;;;3.33;2.60;;;2.20;97.30;;;;;;4969939;28;20480;-89
2022/12/07 06:49:13;;;;;;;2.40;1.87;;;2.30;97.30;;;;;;4972528;28;20823;-90
2022/12/07 06:51:40;;;;;;;3.63;2.90;;;2.30;97.30;;;;;;4972248;28;20424;-88
2022/12/07 06:54:08;;;;;;;2.97;2.33;;;2.30;97.30;;;;;;4978788;28;20186;-89
2022/12/07 06:56:33;;;;;;;3.47;2.53;;;2.30;97.30;;;;;;4969271;28;20488;-89
2022/12/07 06:58:59;;;;;;;3.80;3.30;;;2.40;97.30;;;;;;4976312;28;20596;-87
2022/12/07 07:01:25;;;;;;;3.07;2.73;;;2.40;97.30;;;;;;4974622;28;20178;-88
2022/12/07 07:03:50;;;;;;;9.43;4.30;;;2.40;97.30;;;;;;4962374;28;20249;-89
2022/12/07 07:06:16;;;;;;;3.40;3.23;;;2.50;97.30;;;;;;4971861;28;20170;-89
2022/12/07 07:08:42;;;;;;;2.60;2.40;;;2.50;97.30;;;;;;4986511;28;20753;-89
2022/12/07 07:11:08;;;;;;;4.67;3.00;;;2.50;97.30;;;;;;4974171;28;20467;-86
2022/12/07 07:13:34;;;;;;;5.47;3.90;;;2.50;97.30;;;;;;4975479;28;20221;-88
2022/12/07 07:16:00;;;;;;;1.30;1.20;;;2.60;97.30;;;;;;4973405;28;20449;-88
2022/12/07 07:18:26;;;;;;;4.80;2.07;;;2.60;97.30;;;;;;4964046;28;20898;-89
2022/12/07 07:20:53;;;;;;;1.83;1.37;;;2.60;97.30;;;;;;4985476;28;20209;-91
2022/12/07 07:23:19;;;;;;;3.97;3.77;;;2.60;97.30;;;;;;4985928;28;20474;-88
2022/12/07 07:25:45;;;;;;;4.73;1.93;;;2.70;97.30;;;;;;4990982;28;20449;-87
2022/12/07 07:28:11;;;;;;;2.67;2.47;;;2.70;97.30;;;;;;4992180;28;20448;-87
2022/12/07 07:30:37;;;;;;;7.57;3.50;;;2.70;97.30;;;;;;4991327;28;20508;-89
2022/12/07 07:33:03;;;;;;;7.10;3.70;;;2.70;97.30;;;;;;4992262;28;20537;-89
2022/12/07 07:35:30;;;;;;;2.33;2.03;;;2.70;97.30;;;;;;4991493;28;20732;-88
2022/12/07 07:37:56;;;;;;;5.23;2.30;;;2.80;97.30;;;;;;5003841;28;20408;-93
2022/12/07 07:40:22;;;;;;;1.67;1.53;;;2.80;97.30;;;;;;5016371;28;20433;-93
2022/12/07 07:42:49;;;;;;;15.30;3.77;;;2.80;97.30;;;;;;5013224;28;20476;-88
2022/12/07 07:45:15;;;;;;;3.43;2.20;;;2.80;97.30;;;;;;4993007;28;21147;-88
2022/12/07 07:47:41;;;;;;;3.27;3.07;;;2.80;97.30;;;;;;4986796;28;20476;-90
2022/12/07 07:50:07;;;;;;;4.63;4.33;;;2.80;97.30;;;;;;4992453;28;20428;-88
2022/12/07 07:52:32;;;;;;;5.50;3.57;;;2.80;97.30;;;;;;4990894;28;20224;-85
2022/12/07 07:54:58;;;;;;;5.37;2.50;;;2.90;97.30;;;;;;4985856;28;21126;-86
2022/12/07 07:57:24;;;;;;;3.27;3.07;;;2.80;97.30;;;;;;4990916;28;20196;-87
2022/12/07 07:59:57;;;;;;;3.80;2.77;;;2.80;97.30;;;;;;4985046;28;20209;-89
2022/12/07 08:02:25;;;;;;;4.53;4.20;;;2.80;97.30;;;;;;4984361;28;20217;-88
2022/12/07 08:04:53;;;;;;;5.20;4.37;;;2.80;97.30;;;;;;4990121;28;20416;-89
2022/12/07 08:08:02;;;;;;;2.67;2.47;;;2.80;97.30;;;;;;4990196;28;20935;-89
2022/12/07 08:10:36;;;;;;;2.87;2.67;;;2.80;97.30;;;;;;4976423;28;20412;-89
2022/12/07 08:13:14;;;;;;;6.90;2.20;;;2.90;97.30;;;;;;4986985;28;21005;-89
2022/12/07 08:16:03;;;;;;;6.23;1.90;;;2.90;97.30;;;;;;4989077;28;21019;-87
2022/12/07 08:18:46;;;;;;;2.67;2.47;;;2.80;97.30;;;;;;4980135;28;20437;-89
2022/12/07 08:21:15;;;;;;;6.40;3.00;;;2.80;97.30;;;;;;4986158;28;20416;-88
2022/12/07 08:23:43;;;;;;;2.80;1.73;;;2.80;97.30;;;;;;4979988;28;20565;-89
2022/12/07 08:26:14;;;;;;;7.10;3.50;;;2.90;97.30;;;;;;4987204;28;20817;-90
2022/12/07 08:28:56;;;;;;;1.97;1.67;;;2.90;97.30;;;;;;4991659;28;20876;-88
2022/12/07 08:31:24;;;;;;;8.57;4.73;;;3.00;97.30;;;;;;4983903;28;20417;-89
2022/12/07 08:34:06;;;;;;;3.33;2.80;;;3.00;97.30;;;;;;4984155;28;20954;-88
2022/12/07 08:36:36;;;;;;;5.53;2.47;;;3.10;97.30;;;;;;4988788;28;20418;-89
2022/12/07 08:39:05;;;;;;;3.70;2.40;;;3.10;97.30;;;;;;4990883;28;20983;-90
2022/12/07 08:41:57;;;;;;;1.33;1.23;;;3.10;97.30;;;;;;4989663;28;20548;-88
2022/12/07 09:01:27;;;;;;;1.73;1.63;;;3.50;97.30;;;;;;4989897;28;20527;-89
2022/12/07 09:03:56;;;;;;;4.73;3.70;;;3.50;97.30;;;;;;4984369;28;20570;-88
2022/12/07 09:06:24;;;;;;;7.43;2.23;;;3.50;97.30;;;;;;4992277;28;20428;-89
2022/12/07 09:09:16;;;;;;;8.97;4.90;;;3.50;97.30;;;;;;5005049;28;20451;-89
2022/12/07 09:12:47;;;;;;;;;;;;;;;;;;;;;
2022/12/07 09:15:16;;;;;;;4.10;1.63;;;3.60;97.30;;;;;;5022166;28;20427;-87
2022/12/07 09:18:17;;;;;;;7.73;3.80;;;3.70;97.30;;;;;;5015868;28;20458;-89
2022/12/07 09:20:56;;;;;;;4.67;2.90;;;3.70;97.30;;;;;;4955899;28;20940;-88
2022/12/07 09:23:36;;;;;;;3.70;3.07;;;3.70;97.30;;;;;;4955888;28;20473;-89
2022/12/07 09:26:48;;;;;;;6.17;3.97;;;3.70;97.30;;;;;;4956039;28;20425;-89
2022/12/07 09:31:43;;;;;;;6.63;2.70;;;3.80;97.30;;;;;;5050767;28;20505;-88
2022/12/07 09:34:26;;;;;;;1.60;1.50;;;3.90;97.30;;;;;;5035346;28;20442;-89
2022/12/07 09:36:54;;;;;;;1.20;1.10;;;3.90;97.30;;;;;;5023599;28;20172;-88
2022/12/07 09:39:43;;;;;;;3.43;2.93;;;3.90;97.30;;;;;;5068210;28;20446;-89
2022/12/07 09:42:46;;;;;;;2.63;2.17;;;3.90;97.30;;;;;;5020618;28;20432;-87
2022/12/07 09:45:36;;;;;;;2.60;2.40;;;4.00;97.30;;;;;;5012126;28;20452;-89
2022/12/07 09:48:05;;;;;;;1.63;1.53;;;4.00;97.30;;;;;;5025221;28;20438;-89
2022/12/07 09:50:34;;;;;;;3.50;2.70;;;4.00;97.30;;;;;;5035412;28;20940;-88
2022/12/07 09:53:52;;;;;;;9.80;5.07;;;4.00;97.30;;;;;;5035387;28;20418;-87
2022/12/07 09:56:34;;;;;;;3.50;2.83;;;4.00;97.30;;;;;;4953569;28;20431;-88
2022/12/07 09:59:03;;;;;;;4.77;2.83;;;3.90;97.30;;;;;;5035004;28;20599;-88
2022/12/07 10:01:34;;;;;;;2.40;2.20;;;3.80;97.30;;;;;;5031466;28;20430;-88
2022/12/07 10:04:13;;;;;;;1.67;1.57;;;3.80;97.30;;;;;;5051713;28;20457;-88
2022/12/07 10:06:57;;;;;;;1.57;1.47;;;3.70;97.30;;;;;;5052790;28;20923;-89
2022/12/07 10:09:28;;;;;;;3.67;2.83;;;3.70;97.30;;;;;;5034654;28;20453;-88
2022/12/07 10:12:08;;;;;;;2.47;2.30;;;3.70;97.30;;;;;;5034507;28;20423;-89
2022/12/07 10:14:36;;;;;;;2.07;1.93;;;3.70;97.30;;;;;;5034405;28;20928;-89
2022/12/07 10:17:02;;;;;;;1.40;1.30;;;3.70;97.30;;;;;;5020341;28;20430;-90
2022/12/07 10:19:32;;;;;;;6.17;2.40;;;3.80;97.30;;;;;;5033453;28;20469;-90
2022/12/07 10:22:11;;;;;;;1.30;1.20;;;3.80;97.30;;;;;;5021471;28;20418;-89
2022/12/07 10:24:39;;;;;;;6.97;2.73;;;3.80;97.30;;;;;;5034649;28;20437;-89
2022/12/07 10:27:05;;;;;;;4.10;3.87;;;3.80;97.30;;;;;;5033951;28;20835;-90
2022/12/07 10:29:39;;;;;;;1.63;1.40;;;3.90;97.30;;;;;;5032931;28;20476;-89
2022/12/07 10:32:14;;;;;;;3.93;1.70;;;4.00;97.30;;;;;;5020963;28;20430;-88
2022/12/07 10:34:39;;;;;;;2.90;2.70;;;4.00;97.30;;;;;;5020674;28;20419;-90
2022/12/07 10:37:14;;;;;;;2.17;1.77;;;4.00;97.30;;;;;;5034120;28;20477;-89
2022/12/07 10:39:48;;;;;;;4.37;2.30;;;4.00;97.30;;;;;;5019842;28;20644;-89
2022/12/07 10:42:22;;;;;;;3.50;1.97;;;4.10;97.30;;;;;;5033968;28;20466;-89
2022/12/07 10:45:03;;;;;;;1.40;1.30;;;4.10;97.30;;;;;;5033871;28;20421;-90
2022/12/07 10:47:47;;;;;;;2.87;2.40;;;4.10;97.30;;;;;;5033731;28;20437;-88
2022/12/07 10:50:47;;;;;;;2.10;1.73;;;4.10;97.30;;;;;;5030473;28;20522;-89
2022/12/07 10:53:31;;;;;;;1.57;1.47;;;4.20;97.30;;;;;;5055864;28;20434;-87
2022/12/07 10:56:11;;;;;;;6.20;3.30;;;4.20;97.30;;;;;;5033259;28;20426;-89
2022/12/07 10:59:31;;;;;;;22.83;4.60;;;4.30;97.30;;;;;;5033394;28;20454;-90
2022/12/07 11:01:59;;;;;;;2.77;1.90;;;4.30;97.30;;;;;;4969617;28;21007;-88
2022/12/07 11:04:31;;;;;;;3.10;2.90;;;4.30;97.30;;;;;;5005736;28;20433;-89
2022/12/07 11:07:06;;;;;;;1.20;1.10;;;4.30;97.30;;;;;;5033309;28;20455;-89
2022/12/07 11:09:46;;;;;;;1.77;1.67;;;4.40;97.30;;;;;;5033562;28;20723;-90
2022/12/07 11:12:47;;;;;;;3.80;1.77;;;4.40;97.30;;;;;;5033157;28;20456;-89
2022/12/07 11:15:19;;;;;;;2.27;1.83;;;4.40;97.30;;;;;;5033434;28;20690;-89
2022/12/07 11:18:07;;;;;;;3.50;1.40;;;4.40;97.30;;;;;;5033149;28;20625;-89
2022/12/07 11:20:50;;;;;;;3.80;2.03;;;4.50;97.30;;;;;;5032907;28;20418;-89
2022/12/07 11:25:57;;;;;;;1.47;1.43;;;4.50;97.30;;;;;;5021675;28;20475;-88
2022/12/07 11:29:02;;;;;;;1.37;1.20;;;4.60;97.30;;;;;;5007211;28;20419;-89
2022/12/07 11:31:52;;;;;;;2.00;1.67;;;4.60;97.30;;;;;;5013591;28;20446;-88
2022/12/07 11:34:45;;;;;;;3.30;1.87;;;4.60;97.30;;;;;;5003071;28;20449;-88
2022/12/07 11:37:17;;;;;;;2.03;1.70;;;4.60;97.30;;;;;;5023715;28;20435;-85
2022/12/07 11:40:03;;;;;;;5.13;2.57;;;4.50;97.30;;;;;;5007096;28;20419;-88
2022/12/07 11:42:39;;;;;;;1.10;1.00;;;4.40;97.30;;;;;;5028516;28;20927;-88
2022/12/07 11:45:21;;;;;;;1.17;1.10;;;4.40;97.30;;;;;;5012646;28;20450;-88
2022/12/07 11:47:54;;;;;;;0.90;0.80;;;4.40;97.30;;;;;;5021476;28;20938;-88
2022/12/07 11:50:41;;;;;;;1.00;0.90;;;4.40;97.30;;;;;;5013080;28;20419;-89
2022/12/07 11:53:18;;;;;;;1.47;1.47;;;4.40;97.30;;;;;;5013444;28;20439;-88
2022/12/07 11:56:06;;;;;;;1.17;1.07;;;4.40;97.30;;;;;;5013012;28;20933;-88
2022/12/07 11:58:44;;;;;;;1.60;1.53;;;4.40;97.30;;;;;;5031213;28;20434;-88
2022/12/07 12:01:13;;;;;;;2.47;1.63;;;4.40;97.30;;;;;;5012855;28;20427;-88
2022/12/07 12:03:43;;;;;;;3.83;2.60;;;4.50;97.30;;;;;;5013380;28;20640;-89
2022/12/07 12:06:09;;;;;;;1.67;1.57;;;4.50;97.30;;;;;;5013242;28;20489;-88
2022/12/07 12:08:42;;;;;;;1.87;1.77;;;4.50;97.30;;;;;;5000362;28;20420;-89
2022/12/07 12:11:43;;;;;;;1.43;1.30;;;4.50;97.30;;;;;;5001660;28;20223;-88
2022/12/07 12:14:41;;;;;;;1.50;1.40;;;4.50;97.30;;;;;;5013202;28;20956;-88
2022/12/07 12:17:36;;;;;;;4.07;3.07;;;4.50;97.30;;;;;;4999948;28;20474;-87
2022/12/07 12:20:04;;;;;;;2.77;2.53;;;4.50;97.30;;;;;;4930383;28;20425;-89
2022/12/07 12:22:38;;;;;;;1.47;1.37;;;4.50;97.30;;;;;;5012924;28;20991;-88
2022/12/07 12:25:20;;;;;;;1.10;0.93;;;4.50;97.30;;;;;;5014275;28;20464;-88
2022/12/07 12:27:48;;;;;;;1.53;1.23;;;4.50;97.30;;;;;;4985440;28;20478;-88
2022/12/07 12:30:37;;;;;;;1.80;1.67;;;4.60;97.30;;;;;;4989154;28;20439;-88
2022/12/07 12:33:26;;;;;;;2.63;1.77;;;4.70;97.30;;;;;;4975316;28;20429;-88
2022/12/07 12:36:18;;;;;;;1.33;1.23;;;4.70;97.30;;;;;;4993332;28;20989;-88
2022/12/07 12:39:13;;;;;;;1.47;1.43;;;4.70;97.30;;;;;;4994015;28;20416;-88
2022/12/07 12:41:40;;;;;;;3.60;2.43;;;4.70;97.30;;;;;;5005192;28;20428;-88
2022/12/07 12:44:15;;;;;;;1.20;1.10;;;4.80;97.30;;;;;;5015025;28;20866;-88
2022/12/07 12:46:48;;;;;;;2.37;1.13;;;4.80;97.30;;;;;;4984572;28;20466;-88
2022/12/07 12:49:20;;;;;;;2.07;1.53;;;4.80;97.30;;;;;;5001687;28;20449;-89
2022/12/07 12:51:57;;;;;;;0.90;0.80;;;4.80;97.30;;;;;;4996764;28;20428;-88
2022/12/07 12:54:25;;;;;;;1.40;1.30;;;4.80;97.30;;;;;;4996704;28;20566;-88
2022/12/07 12:57:17;;;;;;;1.53;1.43;;;4.80;97.30;;;;;;4996142;28;20522;-88
2022/12/07 12:59:58;;;;;;;1.10;1.00;;;4.80;97.30;;;;;;5014324;28;20416;-88
2022/12/07 13:02:38;;;;;;;4.60;1.40;;;4.80;97.30;;;;;;4996930;28;20493;-88
2022/12/07 13:05:12;;;;;;;2.77;2.57;;;4.80;97.30;;;;;;4986480;28;20443;-89
2022/12/07 13:07:47;;;;;;;1.33;1.23;;;4.90;97.30;;;;;;4995730;28;20487;-88
2022/12/07 13:10:40;;;;;;;5.60;2.17;;;4.90;97.30;;;;;;4996863;28;20446;-88
2022/12/07 13:13:14;;;;;;;1.37;1.30;;;4.90;97.30;;;;;;4975983;28;20476;-88
2022/12/07 13:15:42;;;;;;;1.20;1.10;;;5.00;97.30;;;;;;4982377;28;20995;-87
2022/12/07 13:18:27;;;;;;;1.10;0.90;;;5.00;97.30;;;;;;4996637;28;20972;-89
2022/12/07 13:20:52;;;;;;;6.33;1.83;;;5.00;97.30;;;;;;4984776;28;20426;-88
2022/12/07 13:23:24;;;;;;;1.57;1.53;;;5.00;97.30;;;;;;4996462;28;20554;-87
2022/12/07 13:26:02;;;;;;;0.83;0.80;;;5.00;97.30;;;;;;5034047;28;20603;-88
2022/12/07 13:28:35;;;;;;;1.00;0.90;;;5.00;97.30;;;;;;5016231;28;20416;-87
2022/12/07 13:31:25;;;;;;;1.30;1.20;;;5.00;97.30;;;;;;5023400;28;20507;-88
2022/12/07 13:33:51;;;;;;;1.03;0.93;;;5.00;97.30;;;;;;5004007;28;20489;-88
2022/12/07 13:36:25;;;;;;;1.10;1.00;;;5.10;97.30;;;;;;5015885;28;20506;-88
2022/12/07 13:38:57;;;;;;;1.00;0.90;;;5.00;97.30;;;;;;5012791;28;20257;-87
2022/12/07 13:41:28;;;;;;;0.90;0.80;;;5.00;97.30;;;;;;5016172;28;20439;-88
2022/12/07 13:44:11;;;;;;;2.60;1.30;;;5.10;97.30;;;;;;5016304;28;20561;-88
2022/12/07 13:46:56;;;;;;;1.00;0.90;;;5.10;97.30;;;;;;5016353;28;20988;-89
2022/12/07 13:49:31;;;;;;;1.00;0.90;;;5.10;97.30;;;;;;5014058;28;20419;-88
2022/12/07 13:52:17;;;;;;;1.20;1.10;;;5.10;97.30;;;;;;4997327;28;20787;-88
2022/12/07 13:54:54;;;;;;;1.00;0.90;;;5.10;97.30;;;;;;5002021;28;20444;-89
2022/12/07 13:57:21;;;;;;;1.60;1.60;;;5.10;97.30;;;;;;5016102;28;20426;-88
2022/12/07 13:59:47;;;;;;;3.90;2.10;;;5.10;97.30;;;;;;5016375;28;20423;-88
2022/12/07 14:02:27;;;;;;;1.73;1.70;;;5.10;97.30;;;;;;5015711;28;20682;-86
2022/12/07 14:05:10;;;;;;;1.00;0.90;;;5.10;97.30;;;;;;5016358;28;20204;-89